Terminal Aerodrome Forecast
Issued by NWS Cleveland, OH

Home | Current Version | Previous Version | Graphics & Text | Print | Product List | Glossary On
Versions: 1 2 3 4 5 6 7 8 9 10 11 12 13 14 15 16 17 18 19 20 21
000
FTUS41 KCLE 242100 AAA
TAFMFD
TAF AMD
KMFD 242123Z 2421/2518 17015G30KT 6SM -SHRA BR OVC008
      TEMPO 2421/2422 2SM TSRA BR OVC012CB
     FM242200 18022G40KT 4SM TSRA BR OVC012CB
     FM250000 24020G35KT P6SM -SHRA OVC010
     FM250800 25015G30KT 3SM -SHSN OVC008
     FM251100 25012G22KT P6SM OVC012
     FM251500 26012G24KT 6SM -SHSN OVC015=

USA.gov is the U.S. government's official web portal to all federal, state and local government web resources and services.